Kelso, North Dakota
Current Conditions -  °F | °C
As of 8:11 AM on Thursday 30 Oct 2014 (Local Time) from KFAR Reporting Station
Light Rain Light Rain  
Wind Chill: 33°   Ceiling: 400
Heat Index: 40°   Visibility: 3mi
Dew Point: 38°   Wind: 13mph
Humidity: 93%   Direction: 10°N
Pressure: 30.11"   Gusts: NA
Location:  47.3592°N, 97.0421°W
Report Text: KFAR 301311Z 01011KT 3SM -RA BR OVC004 04/03 A3011 RMK AO2 CIG 003V008 P0000 T00440033
Loading
Personal Weather Stations






























Interactive Weather Map
Tropical Storm Tracking
New forecast layout! Learn more

10-Day Weather Forecast

Advertisements
Track Severe Weather on mobile